createdAt,value
2019-03-19T00:00:00.375Z,12.40
2019-03-19T00:01:09.884Z,11.00
2019-03-19T00:02:17.892Z,11.37
2019-03-19T00:03:26.098Z,8.27
2019-03-19T00:04:34.277Z,10.00
2019-03-19T00:05:42.568Z,18.93
2019-03-19T00:06:50.570Z,17.30
2019-03-19T00:07:58.694Z,9.17
2019-03-19T00:09:08.177Z,10.70
2019-03-19T00:10:16.235Z,11.40
2019-03-19T00:11:24.002Z,9.50
2019-03-19T00:12:32.123Z,10.87
2019-03-19T00:13:39.940Z,15.97
2019-03-19T00:14:47.945Z,18.27
2019-03-19T00:15:56.153Z,11.80
2019-03-19T00:17:04.358Z,9.00
2019-03-19T00:18:12.471Z,8.87
2019-03-19T00:19:22.457Z,7.73
2019-03-19T00:20:30.014Z,9.03
2019-03-19T00:21:37.869Z,9.80
2019-03-19T00:22:46.537Z,15.03
2019-03-19T00:23:54.647Z,12.60
2019-03-19T00:25:02.555Z,9.03
2019-03-19T00:26:10.614Z,7.93
2019-03-19T00:27:18.649Z,7.43
2019-03-19T00:28:26.552Z,8.13
2019-03-19T00:29:34.391Z,10.53
2019-03-19T00:30:42.525Z,12.97
2019-03-19T00:31:50.661Z,17.63
2019-03-19T00:32:58.595Z,7.17
2019-03-19T00:34:06.407Z,7.03
2019-03-19T00:35:14.645Z,7.17
2019-03-19T00:36:22.549Z,7.73
2019-03-19T00:37:30.392Z,10.20
2019-03-19T00:38:38.628Z,9.67
2019-03-19T00:39:46.720Z,16.60
2019-03-19T00:40:54.566Z,15.03
2019-03-19T00:42:02.496Z,8.20
2019-03-19T00:43:10.508Z,7.60
2019-03-19T00:44:18.338Z,8.27
2019-03-19T00:45:26.687Z,7.73
2019-03-19T00:46:35.017Z,10.43
2019-03-19T00:47:43.293Z,15.17
2019-03-19T00:48:51.295Z,14.23
2019-03-19T00:49:59.261Z,9.97
2019-03-19T00:51:07.033Z,9.83
2019-03-19T00:52:15.062Z,9.47
2019-03-19T00:53:22.881Z,6.77
2019-03-19T00:54:30.949Z,9.13
2019-03-19T00:55:40.924Z,10.77
2019-03-19T00:56:48.685Z,13.13
2019-03-19T00:57:56.588Z,11.03
2019-03-19T00:59:04.412Z,6.73
2019-03-19T01:00:22.040Z,9.80
2019-03-19T01:01:30.084Z,7.73
2019-03-19T01:02:37.751Z,6.77
2019-03-19T01:03:45.536Z,13.97
2019-03-19T01:04:53.571Z,14.90
2019-03-19T01:06:01.674Z,7.30
2019-03-19T01:07:09.709Z,6.50
2019-03-19T01:08:17.633Z,9.43
2019-03-19T01:09:25.623Z,6.03
2019-03-19T01:10:33.648Z,7.87
2019-03-19T01:11:41.412Z,9.67
2019-03-19T01:12:49.916Z,12.13
2019-03-19T01:13:57.932Z,13.10
2019-03-19T01:15:10.004Z,6.40
2019-03-19T01:16:17.896Z,6.77
2019-03-19T01:17:25.708Z,8.50
2019-03-19T01:18:33.462Z,7.67
2019-03-19T01:19:41.470Z,8.03
2019-03-19T01:20:49.502Z,17.00
2019-03-19T01:21:57.562Z,12.53
2019-03-19T01:23:05.762Z,8.13
2019-03-19T01:24:13.605Z,7.53
2019-03-19T01:25:21.409Z,7.13
2019-03-19T01:26:29.659Z,6.13
2019-03-19T01:27:37.661Z,8.47
2019-03-19T01:28:45.421Z,14.23
2019-03-19T01:29:53.810Z,14.33
2019-03-19T01:31:01.686Z,9.87
2019-03-19T01:32:09.708Z,4.57
2019-03-19T01:33:17.928Z,6.10
2019-03-19T01:34:25.812Z,7.20
2019-03-19T01:35:34.109Z,6.47
2019-03-19T01:36:42.100Z,4.73
2019-03-19T01:37:49.988Z,17.20
2019-03-19T01:38:58.173Z,15.27
2019-03-19T01:40:10.094Z,5.90
2019-03-19T01:41:17.873Z,6.13
2019-03-19T01:42:25.972Z,8.80
2019-03-19T01:43:33.846Z,8.20
2019-03-19T01:44:42.085Z,5.77
2019-03-19T01:45:49.944Z,15.20
2019-03-19T01:46:58.277Z,12.37
2019-03-19T01:48:06.671Z,5.33
2019-03-19T01:49:14.660Z,4.93
2019-03-19T01:50:22.752Z,5.27
2019-03-19T01:51:30.645Z,6.03
2019-03-19T01:52:38.720Z,7.47
2019-03-19T01:53:46.528Z,9.97
2019-03-19T01:54:54.610Z,13.57
2019-03-19T01:56:05.407Z,7.90
2019-03-19T01:57:12.113Z,6.63
2019-03-19T01:58:20.019Z,5.93
2019-03-19T01:59:27.895Z,5.93
2019-03-19T02:00:35.823Z,5.20
2019-03-19T02:01:43.785Z,4.93
2019-03-19T02:02:51.937Z,13.87
2019-03-19T02:03:59.900Z,15.03
2019-03-19T02:05:08.342Z,4.90
2019-03-19T02:06:16.187Z,5.50
2019-03-19T02:07:23.898Z,4.23
2019-03-19T02:08:31.909Z,9.43
2019-03-19T02:09:39.912Z,4.67
2019-03-19T02:10:47.979Z,12.63
2019-03-19T02:11:55.859Z,15.13
2019-03-19T02:13:04.011Z,11.80
2019-03-19T02:14:11.759Z,5.67
2019-03-19T02:15:20.222Z,4.97
2019-03-19T02:16:28.036Z,5.93
2019-03-19T02:17:36.026Z,5.37
2019-03-19T02:18:44.452Z,6.43
2019-03-19T02:19:52.498Z,14.03
2019-03-19T02:21:00.313Z,16.53
2019-03-19T02:22:08.330Z,6.07
2019-03-19T02:23:16.202Z,6.90
2019-03-19T02:24:24.204Z,7.33
2019-03-19T02:25:32.191Z,8.57
2019-03-19T02:26:40.908Z,7.53
2019-03-19T02:27:48.536Z,10.73
2019-03-19T02:28:56.653Z,14.43
2019-03-19T02:30:07.021Z,9.27
2019-03-19T02:31:15.120Z,4.97
2019-03-19T02:32:23.379Z,4.40
2019-03-19T02:33:31.483Z,7.27
2019-03-19T02:34:39.585Z,5.53
2019-03-19T02:35:48.310Z,8.80
2019-03-19T02:36:56.378Z,15.13
2019-03-19T02:38:04.485Z,13.40
2019-03-19T02:39:12.214Z,5.63
2019-03-19T02:40:20.454Z,4.53
2019-03-19T02:41:28.558Z,5.87
2019-03-19T02:42:36.658Z,6.60
2019-03-19T02:43:44.621Z,6.70
2019-03-19T02:44:52.459Z,15.33
2019-03-19T02:46:00.326Z,13.17
2019-03-19T02:47:08.232Z,5.37
2019-03-19T02:48:16.107Z,6.97
2019-03-19T02:49:23.833Z,6.67
2019-03-19T02:50:31.583Z,4.87
2019-03-19T02:51:39.485Z,6.00
2019-03-19T02:52:47.446Z,5.60
2019-03-19T02:53:55.476Z,14.00
2019-03-19T02:55:03.580Z,11.57
2019-03-19T02:56:11.558Z,6.60
2019-03-19T02:57:19.265Z,5.20
2019-03-19T02:58:27.059Z,6.83
2019-03-19T02:59:34.880Z,4.90
2019-03-19T03:00:42.641Z,8.70
2019-03-19T03:01:50.506Z,8.00
2019-03-19T03:02:58.322Z,12.03
2019-03-19T03:04:07.706Z,12.03
2019-03-19T03:05:18.525Z,5.67
2019-03-19T03:06:26.485Z,7.60
2019-03-19T03:07:34.178Z,5.80
2019-03-19T03:08:42.071Z,5.73
2019-03-19T03:09:50.461Z,6.00
2019-03-19T03:10:58.872Z,13.40
2019-03-19T03:12:06.982Z,10.43
2019-03-19T03:13:14.853Z,7.10
2019-03-19T03:14:22.774Z,6.63
2019-03-19T03:15:30.435Z,5.57
2019-03-19T03:16:38.311Z,5.23
2019-03-19T03:17:46.304Z,7.00
2019-03-19T03:18:54.322Z,13.67
2019-03-19T03:20:02.530Z,13.13
2019-03-19T03:21:10.296Z,8.63
2019-03-19T03:22:18.268Z,5.57
2019-03-19T03:23:26.293Z,6.17
2019-03-19T03:24:34.245Z,7.70
2019-03-19T03:25:41.870Z,9.53
2019-03-19T03:26:49.766Z,7.00
2019-03-19T03:27:57.409Z,14.00
2019-03-19T03:29:05.674Z,16.27
2019-03-19T03:30:17.773Z,4.33
2019-03-19T03:31:26.016Z,5.53
2019-03-19T03:32:33.806Z,5.53
2019-03-19T03:33:41.563Z,6.40
2019-03-19T03:34:49.536Z,6.37
2019-03-19T03:35:57.504Z,14.50
2019-03-19T03:37:05.722Z,13.23
2019-03-19T03:38:13.570Z,7.43
2019-03-19T03:39:21.354Z,5.23
2019-03-19T03:40:29.328Z,6.90
2019-03-19T03:41:37.425Z,7.47
2019-03-19T03:42:45.876Z,4.97
2019-03-19T03:43:53.689Z,7.23
2019-03-19T03:45:01.578Z,13.17
2019-03-19T03:46:09.765Z,14.47
2019-03-19T03:47:17.605Z,4.77
2019-03-19T03:48:25.754Z,5.93
2019-03-19T03:49:33.511Z,6.23
2019-03-19T03:50:41.437Z,5.87
2019-03-19T03:51:49.670Z,7.93
2019-03-19T03:52:57.664Z,14.00
2019-03-19T03:54:06.108Z,13.40
2019-03-19T03:55:17.077Z,6.60
2019-03-19T03:56:25.016Z,8.73
2019-03-19T03:57:32.987Z,6.83
2019-03-19T03:58:41.083Z,5.73
2019-03-19T03:59:49.290Z,6.70
2019-03-19T04:00:57.277Z,16.13
2019-03-19T04:02:05.781Z,12.53
2019-03-19T04:03:13.879Z,8.17
2019-03-19T04:04:21.734Z,4.27
2019-03-19T04:05:29.435Z,6.17
2019-03-19T04:06:37.325Z,5.07
2019-03-19T04:07:45.219Z,5.70
2019-03-19T04:08:53.137Z,6.80
2019-03-19T04:10:00.942Z,12.63
2019-03-19T04:11:09.014Z,13.30
2019-03-19T04:12:16.612Z,5.00
2019-03-19T04:13:24.521Z,4.40
2019-03-19T04:14:32.254Z,4.63
2019-03-19T04:15:40.135Z,3.53
2019-03-19T04:16:48.017Z,5.90
2019-03-19T04:17:55.901Z,7.50
2019-03-19T04:19:03.917Z,13.77
2019-03-19T04:20:17.250Z,12.73
2019-03-19T04:21:25.190Z,6.60
2019-03-19T04:22:32.971Z,4.63
2019-03-19T04:23:41.059Z,5.87
2019-03-19T04:24:49.093Z,4.70
2019-03-19T04:25:56.876Z,9.17
2019-03-19T04:27:15.340Z,12.67
2019-03-19T04:28:14.521Z,7.70
2019-03-19T04:29:23.310Z,4.53
2019-03-19T04:30:31.109Z,4.23
2019-03-19T04:31:39.089Z,5.73
2019-03-19T04:32:46.840Z,4.03
2019-03-19T04:33:54.742Z,6.00
2019-03-19T04:35:02.963Z,12.40
2019-03-19T04:36:10.760Z,9.83
2019-03-19T04:37:18.754Z,6.80
2019-03-19T04:38:26.833Z,5.17
2019-03-19T04:39:34.592Z,5.37
2019-03-19T04:40:42.533Z,5.87
2019-03-19T04:41:50.291Z,4.20
2019-03-19T04:42:58.205Z,6.53
2019-03-19T04:44:06.419Z,13.30
2019-03-19T04:45:15.946Z,13.83
2019-03-19T04:46:23.873Z,4.73
2019-03-19T04:47:31.664Z,5.43
2019-03-19T04:48:39.407Z,5.93
2019-03-19T04:49:47.410Z,8.03
2019-03-19T04:50:55.508Z,6.33
2019-03-19T04:52:03.383Z,14.83
2019-03-19T04:53:11.250Z,17.07
2019-03-19T04:54:18.935Z,5.67
2019-03-19T04:55:26.859Z,6.80
2019-03-19T04:56:34.591Z,7.83
2019-03-19T04:57:42.393Z,7.63
2019-03-19T04:58:50.332Z,4.93
2019-03-19T04:59:59.037Z,8.70
2019-03-19T05:01:07.663Z,16.63
2019-03-19T05:02:15.667Z,13.50
2019-03-19T05:03:23.399Z,5.43
2019-03-19T05:04:31.125Z,7.40
2019-03-19T05:05:39.029Z,6.07
2019-03-19T05:06:47.001Z,4.33
2019-03-19T05:07:54.933Z,5.50
2019-03-19T05:09:02.890Z,14.37
2019-03-19T05:10:19.211Z,14.83
2019-03-19T05:11:27.194Z,7.23
2019-03-19T05:12:35.288Z,4.27
2019-03-19T05:13:43.132Z,6.43
2019-03-19T05:14:51.107Z,7.50
2019-03-19T05:15:59.745Z,8.43
2019-03-19T05:17:08.123Z,15.67
2019-03-19T05:18:16.126Z,14.20
2019-03-19T05:19:23.959Z,11.00
2019-03-19T05:20:31.844Z,8.40
2019-03-19T05:21:39.944Z,7.27
2019-03-19T05:22:47.747Z,6.03
2019-03-19T05:23:55.765Z,6.43
2019-03-19T05:25:03.827Z,11.67
2019-03-19T05:26:11.875Z,15.90
2019-03-19T05:27:19.943Z,7.93
2019-03-19T05:28:28.138Z,4.70
2019-03-19T05:29:36.230Z,5.83
2019-03-19T05:30:44.003Z,6.97
2019-03-19T05:31:51.645Z,6.77
2019-03-19T05:32:59.674Z,5.17
2019-03-19T05:34:07.698Z,12.13
2019-03-19T05:35:16.104Z,10.87
2019-03-19T05:36:24.114Z,4.57
2019-03-19T05:37:32.061Z,4.17
2019-03-19T05:38:40.084Z,4.80
2019-03-19T05:39:47.873Z,5.07
2019-03-19T05:40:55.887Z,5.37
2019-03-19T05:42:03.698Z,10.30
2019-03-19T05:43:11.672Z,12.07
2019-03-19T05:44:19.752Z,6.47
2019-03-19T05:45:27.848Z,4.70
2019-03-19T05:46:35.746Z,4.80
2019-03-19T05:47:44.246Z,5.03
2019-03-19T05:48:52.552Z,4.27
2019-03-19T05:50:00.645Z,7.07
2019-03-19T05:51:08.514Z,12.50
2019-03-19T05:52:16.535Z,11.27
2019-03-19T05:53:24.287Z,3.63
2019-03-19T05:54:32.725Z,6.17
2019-03-19T05:55:40.553Z,6.03
2019-03-19T05:56:48.407Z,5.03
2019-03-19T05:57:56.271Z,5.40
2019-03-19T05:59:04.230Z,9.43
2019-03-19T06:00:22.527Z,12.73
2019-03-19T06:01:30.349Z,6.23
2019-03-19T06:02:38.292Z,5.07
2019-03-19T06:03:46.395Z,3.93
2019-03-19T06:04:54.223Z,5.67
2019-03-19T06:06:02.130Z,4.80
2019-03-19T06:07:10.512Z,11.53
2019-03-19T06:08:18.704Z,11.50
2019-03-19T06:09:26.723Z,4.80
2019-03-19T06:10:34.689Z,6.10
2019-03-19T06:11:42.823Z,6.47
2019-03-19T06:12:51.381Z,7.23
2019-03-19T06:13:59.439Z,5.63
2019-03-19T06:15:15.295Z,9.67
2019-03-19T06:16:23.505Z,6.10
2019-03-19T06:17:31.547Z,4.53
2019-03-19T06:18:39.595Z,5.43
2019-03-19T06:19:47.456Z,4.90
2019-03-19T06:20:55.412Z,4.90
2019-03-19T06:22:03.435Z,4.93
2019-03-19T06:23:11.420Z,11.93
2019-03-19T06:24:19.382Z,11.07
2019-03-19T06:25:27.748Z,4.83
2019-03-19T06:26:35.482Z,5.60
2019-03-19T06:27:43.834Z,4.97
2019-03-19T06:28:51.909Z,5.83
2019-03-19T06:29:59.983Z,5.77
2019-03-19T06:31:08.063Z,10.00
2019-03-19T06:32:16.535Z,11.33
2019-03-19T06:33:24.455Z,7.90
2019-03-19T06:34:32.750Z,4.07
2019-03-19T06:35:40.962Z,4.10
2019-03-19T06:36:49.127Z,7.53
2019-03-19T06:37:56.937Z,4.87
2019-03-19T06:39:07.656Z,5.03
2019-03-19T06:40:18.178Z,11.27
2019-03-19T06:41:26.633Z,5.97
2019-03-19T06:42:34.566Z,5.17
2019-03-19T06:43:42.562Z,5.90
2019-03-19T06:44:50.803Z,4.83
2019-03-19T06:45:58.813Z,3.57
2019-03-19T06:47:06.909Z,5.30
2019-03-19T06:48:14.890Z,11.03
2019-03-19T06:49:23.310Z,11.07
2019-03-19T06:50:31.704Z,4.83
2019-03-19T06:51:39.657Z,3.50
2019-03-19T06:52:47.911Z,3.83
2019-03-19T06:53:55.977Z,3.50
2019-03-19T06:55:04.915Z,4.27
2019-03-19T06:56:14.812Z,10.67
2019-03-19T06:57:23.106Z,11.03
2019-03-19T06:58:31.146Z,5.03
2019-03-19T06:59:39.339Z,4.27
2019-03-19T07:00:47.437Z,5.27
2019-03-19T07:01:55.346Z,8.50
2019-03-19T07:03:03.647Z,5.47
2019-03-19T07:04:11.835Z,10.73
2019-03-19T07:05:20.848Z,10.50
2019-03-19T07:06:28.902Z,3.53
2019-03-19T07:07:36.948Z,4.60
2019-03-19T07:08:44.867Z,3.60
2019-03-19T07:09:53.033Z,6.63
2019-03-19T07:11:00.971Z,5.23
2019-03-19T07:12:09.372Z,5.73
2019-03-19T07:13:17.533Z,12.27
2019-03-19T07:14:25.729Z,10.40
2019-03-19T07:15:34.030Z,5.30
2019-03-19T07:16:42.298Z,3.60
2019-03-19T07:17:50.238Z,4.83
2019-03-19T07:18:58.065Z,4.10
2019-03-19T07:20:18.404Z,4.97
2019-03-19T07:21:26.393Z,8.37
2019-03-19T07:22:34.596Z,4.63
2019-03-19T07:23:42.523Z,5.60
2019-03-19T07:24:50.443Z,4.50
2019-03-19T07:25:58.699Z,4.27
2019-03-19T07:27:06.783Z,3.67
2019-03-19T07:28:22.075Z,12.80
2019-03-19T07:29:24.456Z,12.67
2019-03-19T07:30:32.810Z,5.67
2019-03-19T07:31:40.736Z,4.83
2019-03-19T07:32:48.700Z,5.30
2019-03-19T07:33:56.602Z,3.07
2019-03-19T07:35:05.101Z,4.57
2019-03-19T07:36:13.234Z,10.90
2019-03-19T07:37:21.075Z,11.60
2019-03-19T07:38:29.075Z,8.57
2019-03-19T07:39:36.953Z,5.63
2019-03-19T07:40:44.947Z,4.00
2019-03-19T07:41:53.979Z,3.90
2019-03-19T07:43:02.177Z,4.23
2019-03-19T07:44:10.378Z,4.57
2019-03-19T07:45:23.443Z,13.27
2019-03-19T07:46:31.482Z,3.57
2019-03-19T07:47:39.792Z,2.50
2019-03-19T07:48:47.627Z,3.40
2019-03-19T07:49:55.616Z,5.57
2019-03-19T07:51:03.816Z,4.60
2019-03-19T07:52:11.860Z,4.40
2019-03-19T07:53:19.836Z,10.13
2019-03-19T07:54:27.960Z,10.10
2019-03-19T07:55:36.000Z,4.53
2019-03-19T07:56:43.991Z,2.83
2019-03-19T07:57:52.085Z,4.27
2019-03-19T07:59:00.417Z,3.77
2019-03-19T08:00:16.795Z,3.70
2019-03-19T08:01:24.876Z,10.77
2019-03-19T08:02:32.967Z,3.53
2019-03-19T08:03:41.105Z,3.27
2019-03-19T08:04:49.319Z,4.10
2019-03-19T08:05:57.244Z,2.53
2019-03-19T08:07:05.554Z,2.57
2019-03-19T08:08:13.482Z,5.87
2019-03-19T08:09:21.711Z,8.30
2019-03-19T08:10:29.703Z,5.50
2019-03-19T08:11:37.542Z,2.17
2019-03-19T08:12:45.735Z,3.83
2019-03-19T08:13:53.609Z,3.73
2019-03-19T08:15:01.491Z,2.60
2019-03-19T08:16:09.703Z,2.77
2019-03-19T08:17:17.591Z,9.03
2019-03-19T08:18:25.680Z,10.07
2019-03-19T08:19:33.699Z,4.00
2019-03-19T08:20:41.671Z,3.03
2019-03-19T08:21:49.762Z,2.53
2019-03-19T08:22:57.658Z,2.17
2019-03-19T08:24:05.608Z,3.30
2019-03-19T08:25:14.801Z,6.03
2019-03-19T08:26:22.620Z,12.93
2019-03-19T08:27:30.726Z,7.50
2019-03-19T08:28:38.744Z,3.40
2019-03-19T08:29:46.850Z,3.30
2019-03-19T08:30:54.726Z,3.30
2019-03-19T08:32:02.729Z,3.50
2019-03-19T08:33:10.651Z,2.70
2019-03-19T08:34:18.557Z,9.93
2019-03-19T08:35:26.626Z,11.20
2019-03-19T08:36:34.615Z,5.40
2019-03-19T08:37:42.813Z,4.33
2019-03-19T08:38:50.682Z,4.23
2019-03-19T08:39:58.811Z,5.10
2019-03-19T08:41:07.019Z,3.43
2019-03-19T08:42:15.102Z,7.93
2019-03-19T08:43:23.147Z,9.67
2019-03-19T08:44:31.111Z,7.17
2019-03-19T08:45:39.102Z,3.93
2019-03-19T08:46:46.957Z,3.80
2019-03-19T08:47:55.032Z,4.10
2019-03-19T08:49:03.073Z,3.70
2019-03-19T08:50:24.531Z,3.77
2019-03-19T08:51:32.518Z,2.97
2019-03-19T08:52:40.805Z,2.60
2019-03-19T08:53:48.870Z,2.60
2019-03-19T08:54:57.177Z,2.43
2019-03-19T08:56:05.060Z,2.27
2019-03-19T08:57:13.075Z,3.77
2019-03-19T08:58:21.050Z,9.40
2019-03-19T08:59:29.254Z,7.40
2019-03-19T09:00:37.223Z,4.33
2019-03-19T09:01:47.220Z,2.20
2019-03-19T09:02:54.680Z,2.33
2019-03-19T09:04:02.511Z,2.60
2019-03-19T09:05:11.283Z,3.40
2019-03-19T09:06:19.228Z,7.03
2019-03-19T09:07:27.223Z,9.93
2019-03-19T09:08:34.912Z,4.00
2019-03-19T09:09:42.826Z,2.40
2019-03-19T09:10:50.839Z,2.60
2019-03-19T09:11:58.924Z,3.37
2019-03-19T09:13:06.754Z,3.33
2019-03-19T09:14:14.576Z,2.90
2019-03-19T09:15:29.950Z,8.20
2019-03-19T09:16:37.628Z,2.60
2019-03-19T09:17:45.868Z,3.53
2019-03-19T09:18:53.849Z,3.30
2019-03-19T09:20:01.846Z,3.73
2019-03-19T09:21:10.077Z,2.97
2019-03-19T09:22:18.036Z,6.30
2019-03-19T09:23:26.359Z,10.70
2019-03-19T09:24:34.253Z,6.30
2019-03-19T09:25:42.337Z,2.83
2019-03-19T09:26:50.181Z,2.83
2019-03-19T09:27:58.017Z,3.33
2019-03-19T09:29:16.071Z,2.43
2019-03-19T09:30:24.677Z,2.23
2019-03-19T09:31:33.016Z,9.50
2019-03-19T09:32:40.762Z,3.37
2019-03-19T09:33:48.698Z,4.37
2019-03-19T09:34:56.731Z,2.87
2019-03-19T09:36:04.584Z,2.13
2019-03-19T09:37:12.541Z,2.47
2019-03-19T09:38:20.511Z,7.37
2019-03-19T09:39:28.306Z,8.17
2019-03-19T09:40:36.656Z,6.93
2019-03-19T09:41:44.787Z,3.77
2019-03-19T09:42:52.912Z,2.90
2019-03-19T09:44:00.993Z,3.00
2019-03-19T09:45:11.485Z,3.07
2019-03-19T09:46:19.499Z,5.83
2019-03-19T09:47:27.886Z,9.10
2019-03-19T09:48:35.818Z,6.67
2019-03-19T09:49:43.834Z,5.10
2019-03-19T09:50:51.824Z,3.70
2019-03-19T09:52:00.038Z,3.50
2019-03-19T09:53:08.215Z,3.43
2019-03-19T09:54:16.221Z,4.43
2019-03-19T09:55:24.699Z,10.80
2019-03-19T09:56:32.995Z,8.33
2019-03-19T09:57:41.122Z,3.33
2019-03-19T09:58:49.044Z,3.30
2019-03-19T09:59:56.754Z,1.97
2019-03-19T10:01:04.703Z,3.50
2019-03-19T10:02:12.530Z,2.97
2019-03-19T10:03:20.491Z,6.10
2019-03-19T10:04:28.310Z,10.57
2019-03-19T10:05:36.234Z,8.80
2019-03-19T10:06:44.149Z,2.47
2019-03-19T10:07:52.325Z,2.47
2019-03-19T10:09:00.136Z,4.37
2019-03-19T10:10:17.169Z,2.83
2019-03-19T10:11:24.911Z,9.27
2019-03-19T10:12:33.074Z,10.40
2019-03-19T10:13:41.241Z,2.13
2019-03-19T10:14:49.046Z,3.83
2019-03-19T10:15:58.488Z,2.23
2019-03-19T10:17:06.687Z,3.27
2019-03-19T10:18:14.536Z,1.97
2019-03-19T10:19:22.522Z,6.47
2019-03-19T10:20:30.668Z,8.37
2019-03-19T10:21:39.129Z,5.77
2019-03-19T10:22:47.492Z,3.13
2019-03-19T10:23:55.779Z,3.30
2019-03-19T10:25:05.004Z,4.30
2019-03-19T10:26:13.620Z,2.20
2019-03-19T10:27:21.745Z,3.10
2019-03-19T10:28:29.862Z,8.17
2019-03-19T10:29:38.682Z,5.80
2019-03-19T10:30:47.029Z,1.73
2019-03-19T10:31:55.017Z,2.20
2019-03-19T10:33:03.118Z,4.63
2019-03-19T10:34:11.163Z,3.07
2019-03-19T10:35:19.520Z,3.20
2019-03-19T10:36:27.521Z,8.57
2019-03-19T10:37:35.535Z,9.00
2019-03-19T10:38:43.409Z,2.07
2019-03-19T10:39:51.466Z,2.70
2019-03-19T10:40:59.386Z,2.33
2019-03-19T10:42:07.640Z,1.97
2019-03-19T10:43:15.686Z,1.87
2019-03-19T10:44:23.503Z,4.30
2019-03-19T10:45:32.130Z,7.77
2019-03-19T10:46:40.111Z,5.37
2019-03-19T10:47:49.495Z,1.93
2019-03-19T10:48:57.509Z,2.07
2019-03-19T10:50:15.125Z,1.50
2019-03-19T10:51:23.159Z,3.30
2019-03-19T10:52:31.425Z,6.70
2019-03-19T10:53:39.150Z,8.20
2019-03-19T10:54:47.549Z,1.27
2019-03-19T10:55:55.393Z,1.93
2019-03-19T10:57:03.336Z,1.70
2019-03-19T10:58:11.572Z,1.90
2019-03-19T10:59:19.660Z,2.07
2019-03-19T11:00:28.541Z,7.57
2019-03-19T11:01:36.908Z,6.77
2019-03-19T11:02:45.092Z,2.23
2019-03-19T11:03:52.984Z,3.13
2019-03-19T11:05:00.755Z,2.07
2019-03-19T11:06:09.072Z,2.13
2019-03-19T11:07:17.188Z,2.10
2019-03-19T11:08:25.204Z,4.03
2019-03-19T11:09:33.182Z,7.10
2019-03-19T11:10:41.157Z,3.27
2019-03-19T11:11:49.149Z,2.60
2019-03-19T11:12:57.308Z,2.70
2019-03-19T11:14:05.171Z,3.27
2019-03-19T11:15:28.103Z,1.67
2019-03-19T11:16:36.893Z,6.73
2019-03-19T11:17:45.004Z,1.60
2019-03-19T11:18:52.801Z,1.50
2019-03-19T11:20:00.794Z,1.17
2019-03-19T11:21:09.040Z,2.63
2019-03-19T11:22:17.802Z,1.57
2019-03-19T11:23:25.803Z,3.50
2019-03-19T11:24:33.757Z,6.03
2019-03-19T11:25:41.513Z,6.00
2019-03-19T11:26:50.084Z,2.50
2019-03-19T11:27:58.266Z,1.53
2019-03-19T11:29:06.259Z,1.73
2019-03-19T11:30:23.600Z,1.50
2019-03-19T11:31:31.785Z,5.27
2019-03-19T11:32:39.764Z,6.40
2019-03-19T11:33:47.875Z,2.33
2019-03-19T11:34:55.692Z,1.90
2019-03-19T11:36:03.602Z,1.60
2019-03-19T11:37:11.336Z,1.63
2019-03-19T11:38:19.177Z,3.17
2019-03-19T11:39:27.132Z,4.30
2019-03-19T11:40:35.037Z,6.53
2019-03-19T11:41:42.983Z,6.00
2019-03-19T11:42:51.925Z,1.50
2019-03-19T11:43:59.691Z,2.10
2019-03-19T11:45:11.345Z,1.83
2019-03-19T11:46:19.360Z,1.63
2019-03-19T11:47:27.752Z,4.17
2019-03-19T11:48:35.580Z,6.60
2019-03-19T11:49:43.444Z,5.93
2019-03-19T11:50:51.050Z,1.87
2019-03-19T11:51:59.172Z,1.87
2019-03-19T11:53:07.324Z,2.33
2019-03-19T11:54:15.256Z,1.30
2019-03-19T11:55:23.194Z,1.83
2019-03-19T11:56:31.249Z,5.13
2019-03-19T11:57:39.319Z,5.53
2019-03-19T11:58:47.222Z,2.80
2019-03-19T11:59:55.043Z,1.50
2019-03-19T12:01:04.355Z,1.93
2019-03-19T12:02:12.439Z,1.63
2019-03-19T12:03:20.565Z,1.83
2019-03-19T12:04:28.541Z,2.97
2019-03-19T12:05:36.610Z,6.23
2019-03-19T12:06:44.837Z,4.97
2019-03-19T12:07:52.730Z,2.50
2019-03-19T12:09:00.590Z,1.23
2019-03-19T12:10:09.251Z,1.40
2019-03-19T12:11:17.128Z,2.20
2019-03-19T12:12:25.068Z,1.77
2019-03-19T12:13:33.236Z,5.27
2019-03-19T12:14:41.204Z,6.23
2019-03-19T12:15:49.406Z,2.13
2019-03-19T12:16:57.659Z,1.43
2019-03-19T12:18:06.371Z,2.60
2019-03-19T12:19:14.379Z,2.87
2019-03-19T12:20:22.256Z,1.77
2019-03-19T12:21:30.214Z,3.53
2019-03-19T12:22:38.099Z,6.47
2019-03-19T12:23:46.086Z,5.83
2019-03-19T12:24:54.286Z,2.63
2019-03-19T12:26:02.055Z,2.00
2019-03-19T12:27:10.059Z,2.30
2019-03-19T12:28:17.979Z,3.53
2019-03-19T12:29:26.394Z,2.43
2019-03-19T12:30:34.863Z,6.53
2019-03-19T12:31:42.651Z,5.77
2019-03-19T12:32:50.749Z,2.20
2019-03-19T12:33:58.757Z,2.10
2019-03-19T12:35:10.108Z,2.37
2019-03-19T12:36:18.019Z,1.70
2019-03-19T12:37:25.976Z,2.07
2019-03-19T12:38:34.539Z,5.63
2019-03-19T12:39:42.628Z,6.73
2019-03-19T12:40:51.131Z,2.77
2019-03-19T12:41:59.387Z,1.13
2019-03-19T12:43:07.604Z,2.40
2019-03-19T12:44:15.608Z,1.80
2019-03-19T12:45:24.862Z,1.27
2019-03-19T12:46:32.890Z,3.63
2019-03-19T12:47:40.953Z,6.60
2019-03-19T12:48:48.807Z,4.83
2019-03-19T12:49:56.995Z,2.20
2019-03-19T12:51:04.729Z,2.90
2019-03-19T12:52:12.918Z,1.83
2019-03-19T12:53:20.973Z,1.73
2019-03-19T12:54:29.181Z,1.97
2019-03-19T12:55:37.026Z,6.50
2019-03-19T12:56:45.000Z,6.67
2019-03-19T12:57:53.099Z,2.30
2019-03-19T12:59:01.198Z,2.30
2019-03-19T13:00:21.338Z,1.90
2019-03-19T13:01:29.425Z,3.00
2019-03-19T13:02:37.568Z,6.70
2019-03-19T13:03:45.673Z,5.70
2019-03-19T13:04:53.762Z,2.40
2019-03-19T13:06:01.858Z,1.67
2019-03-19T13:07:09.980Z,1.60
2019-03-19T13:08:20.225Z,1.87
2019-03-19T13:09:27.429Z,1.97
2019-03-19T13:10:35.684Z,4.07
2019-03-19T13:11:43.693Z,6.17
2019-03-19T13:12:51.666Z,3.50
2019-03-19T13:13:59.665Z,2.37
2019-03-19T13:15:11.407Z,2.03
2019-03-19T13:16:19.339Z,0.97
2019-03-19T13:17:27.244Z,2.30
2019-03-19T13:18:36.346Z,3.97
2019-03-19T13:19:44.096Z,5.53
2019-03-19T13:20:53.625Z,4.07
2019-03-19T13:22:01.662Z,1.07
2019-03-19T13:23:09.559Z,1.53
2019-03-19T13:24:20.063Z,1.17
2019-03-19T13:25:28.545Z,1.03
2019-03-19T13:26:36.387Z,3.50
2019-03-19T13:27:44.707Z,5.10
2019-03-19T13:28:52.964Z,3.60
2019-03-19T13:30:00.907Z,1.33
2019-03-19T13:31:08.896Z,1.93
2019-03-19T13:32:16.757Z,2.03
2019-03-19T13:33:24.851Z,2.40
2019-03-19T13:34:33.197Z,1.60
2019-03-19T13:35:41.282Z,5.47
2019-03-19T13:36:49.156Z,5.53
2019-03-19T13:37:57.017Z,1.87
2019-03-19T13:39:07.217Z,2.03
2019-03-19T13:40:18.432Z,1.70
2019-03-19T13:41:26.684Z,1.40
2019-03-19T13:42:34.747Z,2.10
2019-03-19T13:43:42.982Z,5.90
2019-03-19T13:44:50.923Z,5.40
2019-03-19T13:45:59.359Z,1.57
2019-03-19T13:47:07.378Z,0.83
2019-03-19T13:48:15.257Z,1.57
2019-03-19T13:49:23.166Z,1.67
2019-03-19T13:50:31.322Z,1.63
2019-03-19T13:51:39.790Z,4.40
2019-03-19T13:52:47.929Z,5.27
2019-03-19T13:53:55.712Z,2.23
2019-03-19T13:55:04.148Z,1.27
2019-03-19T13:56:12.258Z,1.00
2019-03-19T13:57:20.267Z,1.20
2019-03-19T13:58:28.249Z,1.23
2019-03-19T13:59:36.457Z,1.47
2019-03-19T14:00:55.141Z,5.63
2019-03-19T14:01:54.251Z,7.40
2019-03-19T14:03:02.375Z,1.57
2019-03-19T14:04:10.463Z,1.73
2019-03-19T14:05:19.149Z,1.20
2019-03-19T14:06:27.081Z,0.97
2019-03-19T14:07:35.161Z,0.90
2019-03-19T14:08:42.914Z,5.33
2019-03-19T14:09:50.726Z,4.73
2019-03-19T14:10:58.595Z,1.20
2019-03-19T14:12:06.650Z,1.60
2019-03-19T14:13:14.700Z,3.07
2019-03-19T14:14:22.769Z,1.43
2019-03-19T14:15:30.749Z,2.13
2019-03-19T14:16:38.602Z,2.50
2019-03-19T14:17:46.384Z,6.50
2019-03-19T14:18:54.343Z,7.30
2019-03-19T14:20:02.683Z,1.30
2019-03-19T14:21:11.317Z,1.30
2019-03-19T14:22:19.406Z,1.20
2019-03-19T14:23:27.187Z,2.47
2019-03-19T14:24:35.232Z,1.83
2019-03-19T14:25:43.165Z,6.63
2019-03-19T14:26:51.227Z,5.23
2019-03-19T14:27:59.197Z,1.37
2019-03-19T14:29:07.169Z,1.20
2019-03-19T14:30:20.176Z,1.00
2019-03-19T14:31:28.101Z,1.00
2019-03-19T14:32:36.364Z,1.60
2019-03-19T14:33:44.336Z,5.00
2019-03-19T14:34:52.355Z,5.70
2019-03-19T14:36:00.138Z,1.07
2019-03-19T14:37:08.366Z,1.37
2019-03-19T14:38:16.593Z,1.50
2019-03-19T14:39:24.432Z,0.93
2019-03-19T14:40:32.322Z,1.53
2019-03-19T14:41:40.734Z,1.73
2019-03-19T14:42:48.924Z,5.17
2019-03-19T14:43:56.894Z,4.43
2019-03-19T14:45:07.106Z,2.20
2019-03-19T14:46:15.060Z,1.40
2019-03-19T14:47:23.060Z,1.73
2019-03-19T14:48:32.015Z,1.73
2019-03-19T14:49:46.535Z,1.53
2019-03-19T14:50:49.648Z,5.40
2019-03-19T14:51:57.716Z,4.80
2019-03-19T14:53:05.747Z,1.77
2019-03-19T14:54:13.560Z,1.23
2019-03-19T14:55:21.715Z,1.20
2019-03-19T14:56:30.509Z,1.10
2019-03-19T14:57:38.632Z,1.40
2019-03-19T14:58:46.620Z,4.53
2019-03-19T14:59:54.887Z,5.10
2019-03-19T15:01:03.064Z,1.83
2019-03-19T15:02:11.064Z,1.37
2019-03-19T15:03:20.431Z,1.70
2019-03-19T15:04:28.629Z,1.43